createdAt,value
2018-06-30T00:00:12.763Z,84
2018-06-30T00:01:13.478Z,84
2018-06-30T00:02:14.195Z,84
2018-06-30T00:03:14.924Z,84
2018-06-30T00:04:15.656Z,84
2018-06-30T00:05:16.387Z,84
2018-06-30T00:06:17.105Z,84
2018-06-30T00:07:17.821Z,84
2018-06-30T00:08:18.538Z,84
2018-06-30T00:09:19.256Z,84
2018-06-30T00:10:19.975Z,84
2018-06-30T00:11:20.704Z,84
2018-06-30T00:12:21.423Z,84
2018-06-30T00:13:22.139Z,84
2018-06-30T00:14:22.869Z,84
2018-06-30T00:15:23.598Z,84
2018-06-30T00:16:24.314Z,84
2018-06-30T00:17:25.029Z,84
2018-06-30T00:18:25.748Z,84
2018-06-30T00:19:26.462Z,83
2018-06-30T00:20:27.196Z,84
2018-06-30T00:21:27.913Z,84
2018-06-30T00:22:28.640Z,83
2018-06-30T00:23:29.391Z,83
2018-06-30T00:24:30.107Z,83
2018-06-30T00:25:30.823Z,84
2018-06-30T00:26:31.541Z,83
2018-06-30T00:27:32.258Z,83
2018-06-30T00:28:32.974Z,83
2018-06-30T00:29:33.691Z,83
2018-06-30T00:30:34.407Z,83
2018-06-30T00:31:35.123Z,83
2018-06-30T00:32:35.835Z,83
2018-06-30T00:33:36.550Z,83
2018-06-30T00:34:37.265Z,83
2018-06-30T00:35:37.993Z,83
2018-06-30T00:36:38.708Z,83
2018-06-30T00:37:39.422Z,83
2018-06-30T00:38:40.148Z,83
2018-06-30T00:39:40.862Z,83
2018-06-30T00:40:41.576Z,83
2018-06-30T00:41:42.291Z,83
2018-06-30T00:42:43.006Z,83
2018-06-30T00:43:43.731Z,83
2018-06-30T00:44:44.446Z,83
2018-06-30T00:45:45.170Z,83
2018-06-30T00:46:45.887Z,83
2018-06-30T00:47:46.619Z,83
2018-06-30T00:48:47.341Z,83
2018-06-30T00:49:48.055Z,82
2018-06-30T00:50:48.778Z,83
2018-06-30T00:51:49.482Z,83
2018-06-30T00:52:50.196Z,83
2018-06-30T00:53:50.926Z,83
2018-06-30T00:54:51.646Z,83
2018-06-30T00:55:52.362Z,83
2018-06-30T00:56:53.075Z,83
2018-06-30T00:57:53.789Z,83
2018-06-30T00:58:54.504Z,82
2018-06-30T00:59:55.219Z,83
2018-06-30T01:00:55.940Z,82
2018-06-30T01:01:56.649Z,83
2018-06-30T01:02:57.364Z,82
2018-06-30T01:03:58.079Z,82
2018-06-30T01:04:58.806Z,82
2018-06-30T01:05:59.522Z,82
2018-06-30T01:07:00.238Z,82
2018-06-30T01:08:00.952Z,83
2018-06-30T01:09:01.669Z,82
2018-06-30T01:10:02.383Z,82
2018-06-30T01:11:03.101Z,82
2018-06-30T01:12:03.822Z,82
2018-06-30T01:13:04.537Z,82
2018-06-30T01:14:05.263Z,82
2018-06-30T01:15:05.978Z,82
2018-06-30T01:16:06.692Z,82
2018-06-30T01:17:07.406Z,82
2018-06-30T01:18:08.121Z,82
2018-06-30T01:19:08.837Z,82
2018-06-30T01:20:09.551Z,82
2018-06-30T01:21:10.278Z,82
2018-06-30T01:22:11.004Z,82
2018-06-30T01:23:11.718Z,82
2018-06-30T01:24:12.433Z,82
2018-06-30T01:25:13.147Z,82
2018-06-30T01:26:13.874Z,82
2018-06-30T01:27:14.589Z,82
2018-06-30T01:28:15.304Z,82
2018-06-30T01:29:16.020Z,82
2018-06-30T01:30:16.734Z,82
2018-06-30T01:31:17.460Z,82
2018-06-30T01:32:18.173Z,82
2018-06-30T01:33:18.887Z,82
2018-06-30T01:34:19.601Z,82
2018-06-30T01:35:20.330Z,82
2018-06-30T01:36:21.053Z,82
2018-06-30T01:37:21.780Z,82
2018-06-30T01:38:22.495Z,82
2018-06-30T01:39:23.208Z,82
2018-06-30T01:40:23.924Z,82
2018-06-30T01:41:24.639Z,82
2018-06-30T01:42:25.365Z,82
2018-06-30T01:43:26.080Z,82
2018-06-30T01:44:26.793Z,82
2018-06-30T01:45:27.507Z,82
2018-06-30T07:03:06.682Z,74
2018-06-30T07:04:07.380Z,73
2018-06-30T07:05:08.098Z,73
2018-06-30T07:06:08.818Z,72
2018-06-30T07:07:09.539Z,72
2018-06-30T07:08:10.258Z,70
2018-06-30T07:09:10.976Z,71
2018-06-30T07:10:11.696Z,71
2018-06-30T07:11:12.415Z,71
2018-06-30T07:12:13.134Z,70
2018-06-30T07:13:13.854Z,70
2018-06-30T07:14:14.680Z,70
2018-06-30T07:15:15.298Z,71
2018-06-30T07:16:16.019Z,71
2018-06-30T07:17:16.740Z,71
2018-06-30T07:18:17.472Z,71
2018-06-30T07:19:18.240Z,71
2018-06-30T07:20:18.912Z,70
2018-06-30T07:21:19.633Z,70
2018-06-30T07:22:20.363Z,69
2018-06-30T07:23:21.083Z,69
2018-06-30T07:24:21.996Z,69
2018-06-30T07:25:22.524Z,69
2018-06-30T07:26:23.247Z,69
2018-06-30T07:27:23.964Z,69
2018-06-30T07:28:24.686Z,69
2018-06-30T07:29:25.405Z,68
2018-06-30T07:30:26.124Z,67
2018-06-30T07:31:26.849Z,67
2018-06-30T07:32:27.562Z,67
2018-06-30T07:33:28.282Z,66
2018-06-30T07:34:29.002Z,65
2018-06-30T07:35:29.724Z,65
2018-06-30T07:36:30.448Z,64
2018-06-30T07:37:31.220Z,64
2018-06-30T07:38:31.897Z,65
2018-06-30T07:39:32.621Z,64
2018-06-30T07:40:33.345Z,64
2018-06-30T07:41:34.067Z,63
2018-06-30T07:42:34.797Z,63
2018-06-30T07:43:35.512Z,63
2018-06-30T07:44:36.237Z,63
2018-06-30T07:45:36.972Z,62
2018-06-30T07:46:37.708Z,62
2018-06-30T07:47:38.431Z,62
2018-06-30T07:48:39.154Z,62
2018-06-30T07:49:40.084Z,62
2018-06-30T07:50:40.599Z,63
2018-06-30T07:51:41.337Z,63
2018-06-30T07:52:42.059Z,64
2018-06-30T07:53:42.780Z,63
2018-06-30T07:54:43.507Z,63
2018-06-30T07:55:44.228Z,63
2018-06-30T07:56:44.955Z,63
2018-06-30T07:57:45.681Z,62
2018-06-30T07:58:46.403Z,61
2018-06-30T07:59:47.128Z,60
2018-06-30T08:00:47.852Z,60
2018-06-30T08:01:48.576Z,61
2018-06-30T08:02:49.300Z,60
2018-06-30T08:03:50.025Z,61
2018-06-30T08:04:50.749Z,60
2018-06-30T08:05:51.491Z,59
2018-06-30T08:06:52.213Z,60
2018-06-30T08:07:52.946Z,60
2018-06-30T08:08:53.681Z,60
2018-06-30T08:09:54.405Z,60
2018-06-30T08:10:55.128Z,61
2018-06-30T08:11:55.866Z,60
2018-06-30T08:12:56.605Z,60
2018-06-30T08:13:57.387Z,60
2018-06-30T08:14:58.061Z,61
2018-06-30T08:15:58.781Z,58
2018-06-30T08:16:59.506Z,58
2018-06-30T08:18:00.242Z,58
2018-06-30T08:19:00.967Z,57
2018-06-30T08:20:01.694Z,56
2018-06-30T08:21:02.465Z,56
2018-06-30T08:22:03.141Z,57
2018-06-30T08:23:03.868Z,56
2018-06-30T08:24:04.605Z,56
2018-06-30T08:25:05.328Z,56
2018-06-30T08:26:06.054Z,55
2018-06-30T08:27:06.794Z,56
2018-06-30T08:28:07.525Z,55
2018-06-30T08:29:08.248Z,55
2018-06-30T08:30:08.971Z,55
2018-06-30T08:31:09.699Z,55
2018-06-30T08:32:10.425Z,52
2018-06-30T08:33:11.151Z,53
2018-06-30T08:34:11.877Z,53
2018-06-30T08:35:12.601Z,51
2018-06-30T08:36:13.354Z,52
2018-06-30T08:37:14.076Z,50
2018-06-30T08:38:14.801Z,50
2018-06-30T08:39:15.528Z,50
2018-06-30T08:40:16.254Z,49
2018-06-30T08:41:16.979Z,49
2018-06-30T08:42:17.709Z,48
2018-06-30T08:43:18.441Z,50
2018-06-30T08:44:19.166Z,50
2018-06-30T08:45:19.895Z,48
2018-06-30T08:46:20.627Z,46
2018-06-30T08:47:21.357Z,48
2018-06-30T08:48:22.087Z,48
2018-06-30T08:49:22.828Z,46
2018-06-30T08:50:23.557Z,46
2018-06-30T08:51:24.287Z,46
2018-06-30T08:52:25.016Z,45
2018-06-30T08:53:25.748Z,45
2018-06-30T08:54:26.482Z,45
2018-06-30T08:55:27.299Z,44
2018-06-30T08:56:27.951Z,44
2018-06-30T08:57:28.696Z,44
2018-06-30T08:58:29.429Z,45
2018-06-30T08:59:30.164Z,45
2018-06-30T09:00:30.896Z,44
2018-06-30T09:01:31.629Z,43
2018-06-30T09:02:32.369Z,44
2018-06-30T09:03:33.146Z,42
2018-06-30T09:04:33.852Z,43
2018-06-30T09:05:34.587Z,42
2018-06-30T09:06:35.339Z,42
2018-06-30T09:07:36.067Z,42
2018-06-30T09:08:36.805Z,42
2018-06-30T09:09:37.542Z,41
2018-06-30T09:10:38.314Z,41
2018-06-30T09:11:39.028Z,40
2018-06-30T09:12:39.773Z,41
2018-06-30T09:13:40.513Z,40
2018-06-30T09:14:41.257Z,39
2018-06-30T09:15:42.013Z,40
2018-06-30T09:16:42.780Z,39
2018-06-30T09:17:43.511Z,38
2018-06-30T09:18:44.264Z,38
2018-06-30T09:19:45.016Z,39
2018-06-30T09:20:45.756Z,39
2018-06-30T09:21:46.513Z,38
2018-06-30T09:22:47.260Z,38
2018-06-30T09:23:48.405Z,37
2018-06-30T09:24:50.145Z,37
2018-06-30T09:25:50.887Z,38
2018-06-30T09:26:51.626Z,39
2018-06-30T09:27:52.366Z,38
2018-06-30T09:28:53.107Z,38
2018-06-30T09:29:53.848Z,38
2018-06-30T09:30:54.593Z,37
2018-06-30T09:31:55.330Z,36
2018-06-30T09:32:56.074Z,36
2018-06-30T09:33:56.811Z,36
2018-06-30T09:34:57.551Z,35
2018-06-30T09:35:58.306Z,35
2018-06-30T09:36:59.045Z,36
2018-06-30T09:37:59.852Z,36
2018-06-30T09:39:00.525Z,36
2018-06-30T09:40:01.266Z,36
2018-06-30T09:41:02.007Z,35
2018-06-30T09:42:02.765Z,35
2018-06-30T09:43:03.500Z,34
2018-06-30T09:44:04.255Z,34
2018-06-30T09:45:04.995Z,33
2018-06-30T09:46:05.733Z,35
2018-06-30T09:47:06.474Z,33
2018-06-30T09:48:07.217Z,34
2018-06-30T09:49:07.958Z,33
2018-06-30T09:50:08.712Z,31
2018-06-30T09:51:09.464Z,32
2018-06-30T09:52:10.203Z,32
2018-06-30T09:53:10.954Z,32
2018-06-30T09:54:11.697Z,31
2018-06-30T09:55:12.436Z,30
2018-06-30T09:56:13.190Z,31
2018-06-30T09:57:13.944Z,31
2018-06-30T09:58:14.696Z,31
2018-06-30T09:59:15.447Z,29
2018-06-30T10:00:16.190Z,29
2018-06-30T10:01:16.934Z,28
2018-06-30T10:02:17.687Z,27
2018-06-30T10:03:18.424Z,27
2018-06-30T10:04:19.168Z,26
2018-06-30T10:05:19.910Z,26
2018-06-30T10:06:20.649Z,26
2018-06-30T10:07:21.390Z,27
2018-06-30T10:08:22.127Z,27
2018-06-30T10:09:22.869Z,27
2018-06-30T10:10:23.622Z,26
2018-06-30T10:11:24.357Z,26
2018-06-30T10:12:25.096Z,26
2018-06-30T10:13:25.855Z,26
2018-06-30T10:14:26.590Z,26
2018-06-30T10:15:27.329Z,25
2018-06-30T10:16:28.069Z,26
2018-06-30T10:17:28.822Z,25
2018-06-30T10:18:29.551Z,25
2018-06-30T10:19:30.365Z,25
2018-06-30T10:20:31.027Z,26
2018-06-30T10:21:31.766Z,26
2018-06-30T10:22:32.505Z,26
2018-06-30T10:23:33.247Z,26
2018-06-30T10:24:33.986Z,26
2018-06-30T10:25:34.726Z,26
2018-06-30T10:26:35.475Z,25
2018-06-30T10:27:36.217Z,26
2018-06-30T10:28:36.957Z,27
2018-06-30T10:29:37.712Z,27
2018-06-30T10:30:38.450Z,26
2018-06-30T10:31:39.202Z,26
2018-06-30T10:32:39.943Z,26
2018-06-30T10:33:40.691Z,26
2018-06-30T10:34:41.425Z,25
2018-06-30T10:35:42.165Z,24
2018-06-30T10:36:42.908Z,24
2018-06-30T10:37:43.660Z,25
2018-06-30T10:38:44.413Z,24
2018-06-30T10:39:45.151Z,23
2018-06-30T10:40:45.886Z,23
2018-06-30T10:41:46.636Z,24
2018-06-30T10:42:47.383Z,26
2018-06-30T10:43:48.123Z,26
2018-06-30T10:44:48.863Z,26
2018-06-30T10:45:49.605Z,26
2018-06-30T10:46:50.343Z,26
2018-06-30T10:47:51.081Z,27
2018-06-30T10:48:51.819Z,27
2018-06-30T10:49:52.571Z,27
2018-06-30T10:50:53.321Z,27
2018-06-30T10:51:54.062Z,26
2018-06-30T10:52:54.798Z,26
2018-06-30T10:53:55.544Z,25
2018-06-30T10:54:56.291Z,26
2018-06-30T10:55:57.030Z,25
2018-06-30T10:56:57.769Z,26
2018-06-30T10:57:58.510Z,25
2018-06-30T10:58:59.256Z,24
2018-06-30T11:00:00.023Z,24
2018-06-30T11:01:00.751Z,24
2018-06-30T11:02:01.489Z,25
2018-06-30T11:03:02.223Z,23
2018-06-30T11:04:03.029Z,25
2018-06-30T11:05:03.742Z,25
2018-06-30T11:06:04.461Z,25
2018-06-30T11:07:05.199Z,25
2018-06-30T11:08:05.935Z,25
2018-06-30T11:09:06.674Z,26
2018-06-30T11:10:07.407Z,26
2018-06-30T11:11:08.198Z,26
2018-06-30T11:12:08.943Z,26
2018-06-30T11:13:09.688Z,26
2018-06-30T11:14:10.421Z,24
2018-06-30T11:15:11.156Z,25
2018-06-30T11:16:11.888Z,25
2018-06-30T11:17:12.620Z,25
2018-06-30T11:18:13.358Z,24
2018-06-30T11:19:14.094Z,24
2018-06-30T11:20:14.901Z,23
2018-06-30T11:21:15.564Z,23
2018-06-30T11:22:16.358Z,23
2018-06-30T11:23:17.040Z,23
2018-06-30T11:24:17.776Z,24
2018-06-30T11:25:18.525Z,23
2018-06-30T11:26:19.254Z,24
2018-06-30T11:27:20.010Z,24
2018-06-30T11:28:20.757Z,23
2018-06-30T11:29:21.537Z,22
2018-06-30T11:30:22.234Z,23
2018-06-30T11:31:22.964Z,22
2018-06-30T11:32:23.698Z,23
2018-06-30T11:33:24.438Z,23
2018-06-30T11:34:25.170Z,24
2018-06-30T11:35:25.901Z,23
2018-06-30T11:36:26.629Z,23
2018-06-30T11:37:27.359Z,23
2018-06-30T11:38:28.096Z,23
2018-06-30T11:39:28.836Z,23
2018-06-30T11:40:29.585Z,22
2018-06-30T11:41:30.298Z,23
2018-06-30T11:42:31.025Z,22
2018-06-30T11:43:31.751Z,22
2018-06-30T11:44:32.490Z,22
2018-06-30T11:45:33.217Z,22
2018-06-30T11:46:33.944Z,22
2018-06-30T11:47:34.670Z,23
2018-06-30T11:48:35.396Z,22
2018-06-30T11:49:36.122Z,22
2018-06-30T11:50:36.859Z,22
2018-06-30T11:51:37.585Z,22
2018-06-30T11:52:38.312Z,22
2018-06-30T11:53:39.039Z,22
2018-06-30T11:54:39.766Z,22
2018-06-30T11:55:40.490Z,22
2018-06-30T11:56:41.219Z,21
2018-06-30T11:57:41.939Z,21
2018-06-30T11:58:42.673Z,21
2018-06-30T11:59:43.390Z,21
2018-06-30T12:00:44.116Z,22
2018-06-30T12:01:44.853Z,22
2018-06-30T12:02:45.589Z,22
2018-06-30T12:03:46.315Z,22
2018-06-30T12:04:47.041Z,22
2018-06-30T12:05:47.770Z,21
2018-06-30T12:06:48.508Z,21
2018-06-30T12:07:49.231Z,20
2018-06-30T12:08:49.968Z,20
2018-06-30T12:09:50.695Z,20
2018-06-30T12:10:51.420Z,21
2018-06-30T12:11:52.160Z,20
2018-06-30T12:12:52.885Z,21
2018-06-30T12:13:53.625Z,20
2018-06-30T12:14:54.349Z,21
2018-06-30T12:15:55.072Z,21
2018-06-30T12:16:55.797Z,22
2018-06-30T12:17:56.521Z,22
2018-06-30T12:18:57.245Z,21
2018-06-30T12:19:57.971Z,22
2018-06-30T12:20:58.695Z,22
2018-06-30T12:21:59.431Z,22
2018-06-30T12:23:00.156Z,22
2018-06-30T12:24:00.884Z,22
2018-06-30T12:25:01.619Z,22
2018-06-30T12:26:02.346Z,22
2018-06-30T12:27:03.068Z,21
2018-06-30T12:28:03.802Z,22
2018-06-30T12:29:04.528Z,21
2018-06-30T12:30:05.252Z,21
2018-06-30T12:31:05.990Z,22
2018-06-30T12:32:06.838Z,21
2018-06-30T12:33:07.441Z,22
2018-06-30T12:34:08.165Z,22
2018-06-30T12:35:08.889Z,22
2018-06-30T12:36:09.613Z,22
2018-06-30T12:37:10.337Z,22
2018-06-30T12:38:11.060Z,22
2018-06-30T12:39:11.892Z,23
2018-06-30T12:40:12.520Z,23
2018-06-30T12:41:13.243Z,23
2018-06-30T12:42:13.977Z,22
2018-06-30T12:43:14.701Z,22
2018-06-30T12:44:15.439Z,22
2018-06-30T12:45:16.162Z,22
2018-06-30T12:46:16.887Z,22
2018-06-30T12:47:17.611Z,22
2018-06-30T12:48:18.333Z,22
2018-06-30T12:49:19.071Z,23
2018-06-30T12:50:19.791Z,22
2018-06-30T12:51:20.516Z,22
2018-06-30T12:52:21.242Z,21
2018-06-30T12:53:21.966Z,22
2018-06-30T12:54:22.709Z,22
2018-06-30T12:55:23.413Z,23
2018-06-30T12:56:24.134Z,23
2018-06-30T12:57:24.857Z,23
2018-06-30T12:58:25.579Z,22
2018-06-30T12:59:26.302Z,22
2018-06-30T13:00:27.027Z,22
2018-06-30T13:01:27.751Z,22
2018-06-30T13:02:28.474Z,22
2018-06-30T13:03:29.196Z,22
2018-06-30T13:04:29.919Z,23
2018-06-30T13:05:30.656Z,23
2018-06-30T13:06:31.380Z,24
2018-06-30T13:07:32.113Z,23
2018-06-30T13:08:32.837Z,24
2018-06-30T13:09:33.560Z,24
2018-06-30T13:10:34.287Z,24
2018-06-30T13:11:35.005Z,25
2018-06-30T13:12:35.728Z,24
2018-06-30T13:13:36.451Z,23
2018-06-30T13:14:37.177Z,24
2018-06-30T13:15:37.911Z,24
2018-06-30T13:16:38.634Z,24
2018-06-30T13:17:39.379Z,25
2018-06-30T13:18:40.080Z,23
2018-06-30T13:19:40.814Z,23
2018-06-30T13:20:41.551Z,23
2018-06-30T13:21:42.273Z,23
2018-06-30T13:22:43.006Z,22
2018-06-30T13:23:43.729Z,23
2018-06-30T13:24:44.451Z,23
2018-06-30T13:25:45.175Z,23
2018-06-30T13:26:45.897Z,23
2018-06-30T13:27:46.619Z,23
2018-06-30T13:28:47.379Z,22
2018-06-30T13:29:48.066Z,23
2018-06-30T13:30:48.790Z,23
2018-06-30T13:31:49.515Z,22
2018-06-30T13:32:50.237Z,22
2018-06-30T13:33:50.971Z,23
2018-06-30T13:34:51.706Z,22
2018-06-30T13:35:52.431Z,23
2018-06-30T13:36:53.159Z,23
2018-06-30T13:37:53.879Z,25
2018-06-30T13:38:54.602Z,25
2018-06-30T13:39:55.380Z,25
2018-06-30T13:40:56.103Z,25
2018-06-30T13:41:56.842Z,25
2018-06-30T13:44:23.384Z,25
2018-06-30T13:45:24.111Z,26
2018-06-30T13:46:24.932Z,26
2018-06-30T13:47:25.570Z,26
2018-06-30T13:48:26.290Z,26
2018-06-30T13:49:27.024Z,26
2018-06-30T13:50:27.761Z,25
2018-06-30T13:51:28.491Z,26
2018-06-30T13:52:29.216Z,25
2018-06-30T13:53:29.936Z,26
2018-06-30T13:54:30.656Z,26
2018-06-30T13:55:31.393Z,26
2018-06-30T13:56:32.116Z,26
2018-06-30T13:57:32.838Z,26
2018-06-30T13:58:33.559Z,26
2018-06-30T13:59:34.282Z,26
2018-06-30T14:00:35.004Z,26
2018-06-30T14:01:35.725Z,24
2018-06-30T14:02:36.456Z,24
2018-06-30T14:03:37.180Z,24
2018-06-30T14:04:37.902Z,25
2018-06-30T14:05:38.636Z,25
2018-06-30T14:06:39.358Z,25
2018-06-30T14:07:40.079Z,25
2018-06-30T14:08:40.798Z,26
2018-06-30T14:09:41.518Z,26
2018-06-30T14:10:42.253Z,27
2018-06-30T14:11:42.974Z,27
2018-06-30T14:12:43.707Z,27
2018-06-30T14:13:44.416Z,27
2018-06-30T14:14:45.140Z,27
2018-06-30T14:15:45.876Z,27
2018-06-30T14:16:46.597Z,27
2018-06-30T14:17:47.331Z,27
2018-06-30T14:18:48.056Z,27
2018-06-30T14:19:48.789Z,27
2018-06-30T14:20:49.513Z,28
2018-06-30T14:21:50.237Z,27
2018-06-30T14:22:50.956Z,27
2018-06-30T14:23:51.678Z,28
2018-06-30T14:24:52.400Z,28
2018-06-30T14:25:53.132Z,27
2018-06-30T14:26:53.865Z,28
2018-06-30T14:27:54.585Z,28
2018-06-30T14:28:55.319Z,27
2018-06-30T14:29:56.042Z,27
2018-06-30T14:30:56.761Z,27
2018-06-30T14:31:57.482Z,27
2018-06-30T14:32:58.203Z,27
2018-06-30T14:33:58.925Z,27
2018-06-30T14:34:59.646Z,27
2018-06-30T14:36:00.370Z,27
2018-06-30T14:37:01.092Z,27
2018-06-30T14:38:01.826Z,27
2018-06-30T14:39:02.561Z,27
2018-06-30T14:40:03.293Z,27
2018-06-30T14:41:04.027Z,26
2018-06-30T14:42:04.750Z,27
2018-06-30T14:43:05.484Z,27
2018-06-30T14:44:06.216Z,27
2018-06-30T14:45:06.949Z,27
2018-06-30T14:46:07.677Z,27
2018-06-30T14:47:08.406Z,27
2018-06-30T14:48:09.130Z,27
2018-06-30T14:49:09.858Z,28
2018-06-30T14:50:10.580Z,27
2018-06-30T14:51:11.301Z,26
2018-06-30T14:52:12.021Z,27
2018-06-30T14:53:12.741Z,28
2018-06-30T14:54:13.464Z,27
2018-06-30T14:55:14.192Z,27
2018-06-30T14:56:14.920Z,27
2018-06-30T14:57:15.640Z,27
2018-06-30T14:58:16.360Z,27
2018-06-30T14:59:17.081Z,27
2018-06-30T15:00:17.801Z,27
2018-06-30T15:01:18.520Z,28
2018-06-30T15:02:19.241Z,27
2018-06-30T15:03:19.965Z,27
2018-06-30T15:04:20.685Z,27
2018-06-30T15:05:21.418Z,28
2018-06-30T15:06:22.142Z,27
2018-06-30T15:07:22.894Z,28
2018-06-30T15:08:23.586Z,27
2018-06-30T15:09:24.318Z,27
2018-06-30T15:10:25.041Z,26
2018-06-30T15:11:25.762Z,26
2018-06-30T15:12:26.487Z,27
2018-06-30T15:13:27.219Z,27
2018-06-30T15:14:27.952Z,27
2018-06-30T15:15:28.674Z,27
2018-06-30T15:16:29.391Z,26
2018-06-30T15:17:30.122Z,27
2018-06-30T15:18:30.843Z,27
2018-06-30T15:19:31.583Z,27
2018-06-30T15:20:32.302Z,26
2018-06-30T15:21:33.025Z,27
2018-06-30T15:22:33.745Z,27
2018-06-30T15:23:34.465Z,26
2018-06-30T15:24:35.265Z,27
2018-06-30T15:25:35.921Z,27
2018-06-30T15:26:36.655Z,27
2018-06-30T15:27:37.381Z,26
2018-06-30T15:28:38.112Z,26
2018-06-30T15:29:38.843Z,26
2018-06-30T15:30:39.577Z,27
2018-06-30T15:31:40.303Z,26
2018-06-30T15:32:41.031Z,26
2018-06-30T15:33:41.752Z,26
2018-06-30T15:34:42.482Z,26
2018-06-30T15:35:43.227Z,26
2018-06-30T15:36:43.928Z,27
2018-06-30T15:37:44.662Z,26
2018-06-30T15:38:45.396Z,27
2018-06-30T15:39:46.116Z,26
2018-06-30T15:40:46.835Z,26
2018-06-30T15:41:47.558Z,26
2018-06-30T15:42:48.276Z,27
2018-06-30T15:43:49.009Z,27
2018-06-30T15:44:49.731Z,27
2018-06-30T15:45:50.450Z,27
2018-06-30T15:46:51.180Z,27
2018-06-30T15:47:51.911Z,27
2018-06-30T15:48:52.630Z,27
2018-06-30T15:49:53.347Z,27
2018-06-30T15:50:54.065Z,27
2018-06-30T15:51:54.786Z,27
2018-06-30T15:52:55.504Z,26
2018-06-30T15:53:56.232Z,26
2018-06-30T15:54:56.958Z,26
2018-06-30T15:55:57.688Z,27
2018-06-30T15:56:58.408Z,26
2018-06-30T15:57:59.140Z,27
2018-06-30T15:58:59.860Z,27
2018-06-30T16:00:00.580Z,26
2018-06-30T16:01:01.300Z,27
2018-06-30T16:02:02.020Z,27
2018-06-30T16:03:02.740Z,27
2018-06-30T16:04:03.458Z,27
2018-06-30T16:05:04.179Z,27
2018-06-30T16:06:04.897Z,26
2018-06-30T16:07:05.629Z,26
2018-06-30T16:08:06.363Z,26
2018-06-30T16:09:07.079Z,27
2018-06-30T16:10:07.799Z,27
2018-06-30T16:11:08.518Z,27
2018-06-30T16:12:09.238Z,27
2018-06-30T16:13:09.962Z,27
2018-06-30T16:14:10.690Z,26
2018-06-30T16:15:11.409Z,26
2018-06-30T16:16:12.129Z,26
2018-06-30T16:17:12.847Z,26
2018-06-30T16:18:13.566Z,26
2018-06-30T16:19:14.284Z,26
2018-06-30T16:20:15.003Z,27
2018-06-30T16:21:15.722Z,26
2018-06-30T16:22:16.440Z,26
2018-06-30T16:23:17.162Z,27
2018-06-30T16:24:17.883Z,27
2018-06-30T16:25:18.606Z,27
2018-06-30T16:26:19.325Z,26
2018-06-30T16:27:20.045Z,27
2018-06-30T16:28:20.764Z,27
2018-06-30T16:29:21.484Z,27
2018-06-30T16:30:22.255Z,27
2018-06-30T16:31:22.922Z,27
2018-06-30T16:32:23.643Z,27
2018-06-30T16:33:24.360Z,27
2018-06-30T16:34:25.090Z,27
2018-06-30T16:35:25.915Z,27
2018-06-30T16:36:26.545Z,27
2018-06-30T16:37:27.281Z,27
2018-06-30T16:38:27.997Z,27
2018-06-30T16:39:28.726Z,28
2018-06-30T16:40:29.446Z,27
2018-06-30T16:41:30.166Z,27
2018-06-30T16:42:30.885Z,27
2018-06-30T16:43:31.603Z,27
2018-06-30T16:44:32.322Z,28
2018-06-30T16:45:33.041Z,27
2018-06-30T16:46:33.772Z,27
2018-06-30T16:47:34.507Z,27
2018-06-30T16:48:35.227Z,28
2018-06-30T16:49:35.945Z,27
2018-06-30T16:50:36.665Z,28
2018-06-30T16:51:37.384Z,28
2018-06-30T16:52:38.107Z,28
2018-06-30T16:53:38.822Z,27
2018-06-30T16:54:39.541Z,27
2018-06-30T16:55:40.261Z,27
2018-06-30T16:56:40.993Z,27
2018-06-30T16:57:41.713Z,27
2018-06-30T16:58:42.455Z,27
2018-06-30T16:59:43.155Z,27
2018-06-30T17:00:43.894Z,27
2018-06-30T17:01:44.616Z,27
2018-06-30T17:02:45.336Z,27
2018-06-30T17:03:46.103Z,27
2018-06-30T17:04:46.785Z,28
2018-06-30T17:05:47.505Z,27
2018-06-30T17:06:48.227Z,27
2018-06-30T17:07:48.945Z,28
2018-06-30T17:08:49.667Z,27
2018-06-30T17:09:50.389Z,27
2018-06-30T17:10:51.110Z,27
2018-06-30T17:11:51.847Z,27
2018-06-30T17:12:52.567Z,27
2018-06-30T17:13:53.290Z,27
2018-06-30T17:14:54.065Z,27
2018-06-30T17:15:54.733Z,27
2018-06-30T17:16:55.452Z,27
2018-06-30T17:17:56.174Z,27
2018-06-30T17:18:56.890Z,27
2018-06-30T17:19:57.656Z,27
2018-06-30T17:20:58.338Z,27
2018-06-30T17:21:59.056Z,27
2018-06-30T17:22:59.774Z,27
2018-06-30T17:24:00.491Z,27
2018-06-30T17:25:01.224Z,27
2018-06-30T17:26:02.014Z,26
2018-06-30T17:27:02.669Z,26
2018-06-30T17:28:03.395Z,27
2018-06-30T17:29:04.124Z,27
2018-06-30T17:30:04.841Z,27
2018-06-30T17:31:05.572Z,27
2018-06-30T17:32:06.295Z,27
2018-06-30T17:33:07.020Z,27
2018-06-30T17:34:07.738Z,28
2018-06-30T17:35:08.471Z,28
2018-06-30T17:36:09.206Z,27
2018-06-30T17:37:09.927Z,28
2018-06-30T17:38:10.647Z,28
2018-06-30T17:39:11.367Z,28
2018-06-30T17:40:12.090Z,28
2018-06-30T17:41:12.806Z,28
2018-06-30T17:42:13.528Z,28
2018-06-30T17:43:14.247Z,28
2018-06-30T17:44:14.970Z,28
2018-06-30T17:45:15.745Z,29
2018-06-30T17:46:16.482Z,29
2018-06-30T17:47:17.210Z,28
2018-06-30T17:48:17.931Z,28
2018-06-30T17:49:18.650Z,28
2018-06-30T17:50:19.382Z,28
2018-06-30T17:51:20.106Z,28
2018-06-30T17:52:20.826Z,28
2018-06-30T17:53:21.561Z,28
2018-06-30T17:54:22.275Z,28
2018-06-30T17:55:22.993Z,28
2018-06-30T17:56:23.748Z,28
2018-06-30T17:57:24.479Z,28
2018-06-30T17:58:25.202Z,28
2018-06-30T17:59:25.926Z,28
2018-06-30T18:00:26.648Z,29
2018-06-30T18:01:27.376Z,28
2018-06-30T18:02:28.101Z,29
2018-06-30T18:03:28.825Z,29
2018-06-30T18:04:29.556Z,29
2018-06-30T18:05:30.273Z,29
2018-06-30T18:06:30.994Z,28
2018-06-30T18:07:31.715Z,29
2018-06-30T18:08:32.436Z,29
2018-06-30T18:09:33.163Z,29
2018-06-30T18:10:33.878Z,29
2018-06-30T18:11:34.608Z,29
2018-06-30T18:12:35.326Z,29
2018-06-30T18:13:36.063Z,29
2018-06-30T18:14:36.782Z,29
2018-06-30T18:15:37.505Z,29
2018-06-30T18:16:38.233Z,28
2018-06-30T18:17:38.947Z,29
2018-06-30T18:18:39.669Z,29
2018-06-30T18:19:40.393Z,29
2018-06-30T18:20:41.114Z,30
2018-06-30T18:21:41.837Z,29
2018-06-30T18:22:42.580Z,29
2018-06-30T18:23:43.287Z,29
2018-06-30T18:24:44.007Z,29
2018-06-30T18:25:44.728Z,29
2018-06-30T18:26:45.448Z,29
2018-06-30T18:27:46.181Z,29
2018-06-30T18:28:46.915Z,29
2018-06-30T18:29:47.637Z,29
2018-06-30T18:30:48.358Z,29
2018-06-30T18:31:49.092Z,29
2018-06-30T18:32:49.815Z,30
2018-06-30T18:33:50.545Z,30
2018-06-30T18:34:51.324Z,30
2018-06-30T18:35:51.995Z,30
2018-06-30T18:36:52.715Z,30
2018-06-30T18:37:53.466Z,30
2018-06-30T18:38:54.195Z,30
2018-06-30T18:39:54.930Z,30
2018-06-30T18:40:55.663Z,30
2018-06-30T18:41:56.404Z,30
2018-06-30T18:42:57.125Z,30
2018-06-30T18:43:57.859Z,30
2018-06-30T18:44:58.590Z,31
2018-06-30T18:45:59.313Z,31
2018-06-30T18:47:00.049Z,32
2018-06-30T18:48:00.769Z,30
2018-06-30T18:49:01.505Z,31
2018-06-30T18:50:02.233Z,32
2018-06-30T18:51:02.948Z,32
2018-06-30T18:52:03.670Z,32
2018-06-30T18:53:04.396Z,32
2018-06-30T18:54:05.128Z,31
2018-06-30T18:55:05.864Z,32
2018-06-30T18:56:06.582Z,32
2018-06-30T18:57:07.306Z,32
2018-06-30T18:58:08.029Z,32
2018-06-30T18:59:08.752Z,32
2018-06-30T19:00:09.479Z,32
2018-06-30T19:01:10.198Z,32
2018-06-30T19:02:10.920Z,32
2018-06-30T19:03:11.684Z,32
2018-06-30T19:04:12.368Z,32
2018-06-30T19:05:13.092Z,32
2018-06-30T19:06:13.816Z,33
2018-06-30T19:07:14.539Z,33
2018-06-30T19:08:15.261Z,33
2018-06-30T19:09:15.980Z,33
2018-06-30T19:10:16.737Z,33
2018-06-30T19:11:17.425Z,33
2018-06-30T19:12:18.146Z,34
2018-06-30T19:13:18.866Z,33
2018-06-30T19:14:19.586Z,34
2018-06-30T19:15:20.309Z,34
2018-06-30T19:16:21.029Z,34
2018-06-30T19:17:21.751Z,34
2018-06-30T19:18:22.471Z,34
2018-06-30T19:19:23.196Z,34
2018-06-30T19:20:23.920Z,35
2018-06-30T19:21:24.642Z,35
2018-06-30T19:22:25.367Z,35
2018-06-30T19:23:26.097Z,35
2018-06-30T19:24:26.820Z,35
2018-06-30T19:25:27.591Z,35
2018-06-30T19:26:28.328Z,35
2018-06-30T19:27:29.052Z,35
2018-06-30T19:28:29.771Z,35
2018-06-30T19:29:30.491Z,35
2018-06-30T19:30:31.225Z,35
2018-06-30T19:31:31.942Z,36
2018-06-30T19:32:32.662Z,36
2018-06-30T19:33:33.383Z,36
2018-06-30T19:34:34.109Z,36
2018-06-30T19:35:34.832Z,36
2018-06-30T19:36:35.584Z,36
2018-06-30T19:37:36.276Z,36
2018-06-30T19:38:37.005Z,36
2018-06-30T19:39:37.728Z,36
2018-06-30T19:40:38.456Z,36
2018-06-30T19:41:39.183Z,36
2018-06-30T19:42:39.904Z,37
2018-06-30T19:43:40.624Z,36